sensor_id;sensor_type;location;lat;lon;timestamp;temperature;humidity
28460;DHT22;32528;45.712;9.192;2023-08-24T00:01:38;27.70;90.40
28460;DHT22;32528;45.712;9.192;2023-08-24T00:03:39;27.70;90.40
28460;DHT22;32528;45.712;9.192;2023-08-24T00:05:40;27.60;90.40
28460;DHT22;32528;45.712;9.192;2023-08-24T00:07:41;27.60;90.50
28460;DHT22;32528;45.712;9.192;2023-08-24T00:09:42;27.60;90.50
28460;DHT22;32528;45.712;9.192;2023-08-24T00:11:43;27.50;90.40
28460;DHT22;32528;45.712;9.192;2023-08-24T00:13:44;27.50;90.40
28460;DHT22;32528;45.712;9.192;2023-08-24T00:15:54;27.50;90.30
28460;DHT22;32528;45.712;9.192;2023-08-24T00:17:55;27.50;90.30
28460;DHT22;32528;45.712;9.192;2023-08-24T00:19:56;27.50;90.50
28460;DHT22;32528;45.712;9.192;2023-08-24T00:21:57;27.50;90.70
28460;DHT22;32528;45.712;9.192;2023-08-24T00:23:57;27.40;90.70
28460;DHT22;32528;45.712;9.192;2023-08-24T00:26:00;27.40;90.80
28460;DHT22;32528;45.712;9.192;2023-08-24T00:28:00;27.40;90.90
28460;DHT22;32528;45.712;9.192;2023-08-24T00:30:06;27.30;90.90
28460;DHT22;32528;45.712;9.192;2023-08-24T00:32:07;27.40;90.90
28460;DHT22;32528;45.712;9.192;2023-08-24T00:34:08;27.40;90.80
28460;DHT22;32528;45.712;9.192;2023-08-24T00:36:09;27.40;90.70
28460;DHT22;32528;45.712;9.192;2023-08-24T00:38:10;27.40;90.60
28460;DHT22;32528;45.712;9.192;2023-08-24T00:40:11;27.50;90.60
28460;DHT22;32528;45.712;9.192;2023-08-24T00:42:12;27.50;90.60
28460;DHT22;32528;45.712;9.192;2023-08-24T00:44:15;27.50;90.50
28460;DHT22;32528;45.712;9.192;2023-08-24T00:46:17;27.50;90.50
28460;DHT22;32528;45.712;9.192;2023-08-24T00:48:20;27.50;90.60
28460;DHT22;32528;45.712;9.192;2023-08-24T00:50:26;27.50;90.60
28460;DHT22;32528;45.712;9.192;2023-08-24T00:52:29;27.50;90.70
28460;DHT22;32528;45.712;9.192;2023-08-24T00:54:32;27.40;90.80
28460;DHT22;32528;45.712;9.192;2023-08-24T00:56:32;27.40;90.80
28460;DHT22;32528;45.712;9.192;2023-08-24T00:58:33;27.30;90.80
28460;DHT22;32528;45.712;9.192;2023-08-24T01:00:35;27.30;90.90
28460;DHT22;32528;45.712;9.192;2023-08-24T01:02:37;27.30;91.00
28460;DHT22;32528;45.712;9.192;2023-08-24T01:04:41;27.20;91.00
28460;DHT22;32528;45.712;9.192;2023-08-24T01:06:43;27.20;91.20
28460;DHT22;32528;45.712;9.192;2023-08-24T01:08:44;27.20;91.10
28460;DHT22;32528;45.712;9.192;2023-08-24T01:13:10;27.20;91.20
28460;DHT22;32528;45.712;9.192;2023-08-24T01:15:18;27.20;91.30
28460;DHT22;32528;45.712;9.192;2023-08-24T01:17:26;27.20;91.30
28460;DHT22;32528;45.712;9.192;2023-08-24T01:19:45;27.20;91.30
28460;DHT22;32528;45.712;9.192;2023-08-24T01:21:47;27.10;91.50
28460;DHT22;32528;45.712;9.192;2023-08-24T01:24:22;27.10;91.40
28460;DHT22;32528;45.712;9.192;2023-08-24T01:26:20;27.10;91.60
28460;DHT22;32528;45.712;9.192;2023-08-24T01:28:21;27.10;91.60
28460;DHT22;32528;45.712;9.192;2023-08-24T01:30:22;27.10;91.60
28460;DHT22;32528;45.712;9.192;2023-08-24T01:32:24;27.10;91.50
28460;DHT22;32528;45.712;9.192;2023-08-24T01:34:24;27.10;91.40
28460;DHT22;32528;45.712;9.192;2023-08-24T01:36:25;27.10;91.40
28460;DHT22;32528;45.712;9.192;2023-08-24T01:38:27;27.10;91.50
28460;DHT22;32528;45.712;9.192;2023-08-24T01:41:19;27.10;91.70
28460;DHT22;32528;45.712;9.192;2023-08-24T01:43:01;27.00;91.90
28460;DHT22;32528;45.712;9.192;2023-08-24T01:45:07;27.00;91.80
28460;DHT22;32528;45.712;9.192;2023-08-24T01:47:10;27.00;91.90
28460;DHT22;32528;45.712;9.192;2023-08-24T01:49:13;26.90;91.90
28460;DHT22;32528;45.712;9.192;2023-08-24T01:51:15;26.90;91.90
28460;DHT22;32528;45.712;9.192;2023-08-24T01:53:16;26.90;91.90
28460;DHT22;32528;45.712;9.192;2023-08-24T01:55:19;26.80;91.90
28460;DHT22;32528;45.712;9.192;2023-08-24T01:57:20;26.80;92.10
28460;DHT22;32528;45.712;9.192;2023-08-24T01:59:21;26.80;92.30
28460;DHT22;32528;45.712;9.192;2023-08-24T02:01:22;26.70;92.20
28460;DHT22;32528;45.712;9.192;2023-08-24T02:03:24;26.60;92.40
28460;DHT22;32528;45.712;9.192;2023-08-24T02:05:24;26.60;92.40
28460;DHT22;32528;45.712;9.192;2023-08-24T02:07:28;26.60;92.40
28460;DHT22;32528;45.712;9.192;2023-08-24T02:09:28;26.60;92.50
28460;DHT22;32528;45.712;9.192;2023-08-24T02:11:30;26.60;92.40
28460;DHT22;32528;45.712;9.192;2023-08-24T02:13:31;26.50;92.60
28460;DHT22;32528;45.712;9.192;2023-08-24T02:15:32;26.50;92.60
28460;DHT22;32528;45.712;9.192;2023-08-24T02:17:33;26.50;92.70
28460;DHT22;32528;45.712;9.192;2023-08-24T02:19:34;26.40;92.80
28460;DHT22;32528;45.712;9.192;2023-08-24T02:21:36;26.40;93.20
28460;DHT22;32528;45.712;9.192;2023-08-24T02:23:37;26.40;93.00
28460;DHT22;32528;45.712;9.192;2023-08-24T02:25:43;26.30;93.10
28460;DHT22;32528;45.712;9.192;2023-08-24T02:27:44;26.30;93.10
28460;DHT22;32528;45.712;9.192;2023-08-24T02:29:45;26.30;93.10
28460;DHT22;32528;45.712;9.192;2023-08-24T02:31:50;26.30;93.00
28460;DHT22;32528;45.712;9.192;2023-08-24T02:33:51;26.30;93.00
28460;DHT22;32528;45.712;9.192;2023-08-24T02:35:52;26.30;93.00
28460;DHT22;32528;45.712;9.192;2023-08-24T02:37:52;26.30;93.00
28460;DHT22;32528;45.712;9.192;2023-08-24T02:39:55;26.40;93.10
28460;DHT22;32528;45.712;9.192;2023-08-24T02:41:56;26.40;93.10
28460;DHT22;32528;45.712;9.192;2023-08-24T02:43:57;26.30;93.10
28460;DHT22;32528;45.712;9.192;2023-08-24T02:46:02;26.30;93.50
28460;DHT22;32528;45.712;9.192;2023-08-24T02:48:03;26.30;93.20
28460;DHT22;32528;45.712;9.192;2023-08-24T02:50:05;26.20;93.60
28460;DHT22;32528;45.712;9.192;2023-08-24T02:52:06;26.20;93.60
28460;DHT22;32528;45.712;9.192;2023-08-24T02:54:07;26.20;93.20
28460;DHT22;32528;45.712;9.192;2023-08-24T02:56:08;26.20;93.40
28460;DHT22;32528;45.712;9.192;2023-08-24T02:58:08;26.30;93.40
28460;DHT22;32528;45.712;9.192;2023-08-24T03:00:11;26.40;93.30
28460;DHT22;32528;45.712;9.192;2023-08-24T03:02:14;26.40;93.20
28460;DHT22;32528;45.712;9.192;2023-08-24T03:04:15;26.30;93.20
28460;DHT22;32528;45.712;9.192;2023-08-24T03:06:15;26.30;93.10
28460;DHT22;32528;45.712;9.192;2023-08-24T03:08:16;26.30;93.10
28460;DHT22;32528;45.712;9.192;2023-08-24T03:10:17;26.30;93.20
28460;DHT22;32528;45.712;9.192;2023-08-24T03:12:17;26.30;93.60
28460;DHT22;32528;45.712;9.192;2023-08-24T03:14:19;26.20;93.70
28460;DHT22;32528;45.712;9.192;2023-08-24T03:16:20;26.10;93.70
28460;DHT22;32528;45.712;9.192;2023-08-24T03:18:21;26.10;93.40
28460;DHT22;32528;45.712;9.192;2023-08-24T03:20:22;26.20;93.40
28460;DHT22;32528;45.712;9.192;2023-08-24T03:22:23;26.40;93.30
28460;DHT22;32528;45.712;9.192;2023-08-24T03:24:23;26.40;93.20
28460;DHT22;32528;45.712;9.192;2023-08-24T03:26:24;26.30;93.20
28460;DHT22;32528;45.712;9.192;2023-08-24T03:28:28;26.40;93.20
28460;DHT22;32528;45.712;9.192;2023-08-24T03:30:28;26.40;93.20
28460;DHT22;32528;45.712;9.192;2023-08-24T03:32:29;26.50;93.20
28460;DHT22;32528;45.712;9.192;2023-08-24T03:34:30;26.40;93.20
28460;DHT22;32528;45.712;9.192;2023-08-24T03:36:32;26.60;93.10
28460;DHT22;32528;45.712;9.192;2023-08-24T03:38:33;26.50;93.00
28460;DHT22;32528;45.712;9.192;2023-08-24T03:40:34;26.50;93.00
28460;DHT22;32528;45.712;9.192;2023-08-24T03:42:34;26.40;93.10
28460;DHT22;32528;45.712;9.192;2023-08-24T03:44:35;26.40;93.20
28460;DHT22;32528;45.712;9.192;2023-08-24T03:46:36;26.40;93.30
28460;DHT22;32528;45.712;9.192;2023-08-24T03:48:37;26.30;93.30
28460;DHT22;32528;45.712;9.192;2023-08-24T03:50:38;26.30;93.40
28460;DHT22;32528;45.712;9.192;2023-08-24T03:52:40;26.30;93.40
28460;DHT22;32528;45.712;9.192;2023-08-24T03:54:41;26.10;93.50
28460;DHT22;32528;45.712;9.192;2023-08-24T03:56:42;26.10;93.70
28460;DHT22;32528;45.712;9.192;2023-08-24T03:58:43;26.00;93.80
28460;DHT22;32528;45.712;9.192;2023-08-24T04:00:44;26.00;93.90
28460;DHT22;32528;45.712;9.192;2023-08-24T04:02:45;25.90;93.90
28460;DHT22;32528;45.712;9.192;2023-08-24T04:04:54;25.90;94.00
28460;DHT22;32528;45.712;9.192;2023-08-24T04:06:54;25.90;94.00
28460;DHT22;32528;45.712;9.192;2023-08-24T04:08:56;25.90;94.00
28460;DHT22;32528;45.712;9.192;2023-08-24T04:10:57;25.80;94.10
28460;DHT22;32528;45.712;9.192;2023-08-24T04:12:58;25.80;94.20
28460;DHT22;32528;45.712;9.192;2023-08-24T04:14:59;25.70;94.20
28460;DHT22;32528;45.712;9.192;2023-08-24T04:17:00;25.60;94.30
28460;DHT22;32528;45.712;9.192;2023-08-24T04:19:01;25.60;94.30
28460;DHT22;32528;45.712;9.192;2023-08-24T04:21:01;25.60;94.40
28460;DHT22;32528;45.712;9.192;2023-08-24T04:23:02;25.60;95.00
28460;DHT22;32528;45.712;9.192;2023-08-24T04:25:04;25.50;94.60
28460;DHT22;32528;45.712;9.192;2023-08-24T04:27:05;25.50;94.60
28460;DHT22;32528;45.712;9.192;2023-08-24T04:29:05;25.40;94.60
28460;DHT22;32528;45.712;9.192;2023-08-24T04:31:06;25.40;94.70
28460;DHT22;32528;45.712;9.192;2023-08-24T04:33:07;25.40;95.30
28460;DHT22;32528;45.712;9.192;2023-08-24T04:35:08;25.40;94.90
28460;DHT22;32528;45.712;9.192;2023-08-24T04:37:09;25.50;94.90
28460;DHT22;32528;45.712;9.192;2023-08-24T04:39:09;25.50;94.90
28460;DHT22;32528;45.712;9.192;2023-08-24T04:41:11;25.50;94.80
28460;DHT22;32528;45.712;9.192;2023-08-24T04:43:12;25.50;94.80
28460;DHT22;32528;45.712;9.192;2023-08-24T04:45:13;25.50;94.70
28460;DHT22;32528;45.712;9.192;2023-08-24T04:47:15;25.60;94.70
28460;DHT22;32528;45.712;9.192;2023-08-24T04:49:15;25.60;94.60
28460;DHT22;32528;45.712;9.192;2023-08-24T04:51:16;25.50;94.60
28460;DHT22;32528;45.712;9.192;2023-08-24T04:53:18;25.50;94.60
28460;DHT22;32528;45.712;9.192;2023-08-24T04:55:19;25.60;94.60
28460;DHT22;32528;45.712;9.192;2023-08-24T04:57:19;25.50;94.70
28460;DHT22;32528;45.712;9.192;2023-08-24T04:59:20;25.50;94.60
28460;DHT22;32528;45.712;9.192;2023-08-24T05:01:21;25.60;94.60
28460;DHT22;32528;45.712;9.192;2023-08-24T05:03:22;25.60;94.50
28460;DHT22;32528;45.712;9.192;2023-08-24T05:05:22;25.60;94.40
28460;DHT22;32528;45.712;9.192;2023-08-24T05:07:23;25.60;94.30
28460;DHT22;32528;45.712;9.192;2023-08-24T05:09:24;25.70;94.30
28460;DHT22;32528;45.712;9.192;2023-08-24T05:11:27;25.60;94.30
28460;DHT22;32528;45.712;9.192;2023-08-24T05:13:29;25.60;94.20
28460;DHT22;32528;45.712;9.192;2023-08-24T05:15:30;25.70;94.30
28460;DHT22;32528;45.712;9.192;2023-08-24T05:17:31;25.70;94.10
28460;DHT22;32528;45.712;9.192;2023-08-24T05:19:32;25.80;94.10
28460;DHT22;32528;45.712;9.192;2023-08-24T05:21:33;25.80;94.10
28460;DHT22;32528;45.712;9.192;2023-08-24T05:23:34;25.90;94.10
28460;DHT22;32528;45.712;9.192;2023-08-24T05:25:35;25.90;94.00
28460;DHT22;32528;45.712;9.192;2023-08-24T05:27:37;25.90;93.90
28460;DHT22;32528;45.712;9.192;2023-08-24T05:29:38;26.00;93.70
28460;DHT22;32528;45.712;9.192;2023-08-24T05:31:38;26.10;93.60
28460;DHT22;32528;45.712;9.192;2023-08-24T05:33:39;26.20;93.50
28460;DHT22;32528;45.712;9.192;2023-08-24T05:35:40;26.30;93.50
28460;DHT22;32528;45.712;9.192;2023-08-24T05:37:40;26.40;93.40
28460;DHT22;32528;45.712;9.192;2023-08-24T05:39:41;26.40;93.20
28460;DHT22;32528;45.712;9.192;2023-08-24T05:41:42;26.50;93.20
28460;DHT22;32528;45.712;9.192;2023-08-24T05:43:42;26.50;93.10
28460;DHT22;32528;45.712;9.192;2023-08-24T05:45:43;26.60;93.10
28460;DHT22;32528;45.712;9.192;2023-08-24T05:47:47;26.60;93.00
28460;DHT22;32528;45.712;9.192;2023-08-24T05:49:47;26.70;93.10
28460;DHT22;32528;45.712;9.192;2023-08-24T05:51:50;26.70;92.90
28460;DHT22;32528;45.712;9.192;2023-08-24T05:53:51;26.80;92.80
28460;DHT22;32528;45.712;9.192;2023-08-24T05:55:58;26.90;92.90
28460;DHT22;32528;45.712;9.192;2023-08-24T05:57:59;27.00;92.70
28460;DHT22;32528;45.712;9.192;2023-08-24T06:00:00;27.10;92.70
28460;DHT22;32528;45.712;9.192;2023-08-24T06:02:01;27.10;92.60
28460;DHT22;32528;45.712;9.192;2023-08-24T06:04:01;27.10;92.30
28460;DHT22;32528;45.712;9.192;2023-08-24T06:06:03;27.20;92.20
28460;DHT22;32528;45.712;9.192;2023-08-24T06:08:05;27.20;92.10
28460;DHT22;32528;45.712;9.192;2023-08-24T06:10:06;27.30;92.00
28460;DHT22;32528;45.712;9.192;2023-08-24T06:12:07;27.50;91.90
28460;DHT22;32528;45.712;9.192;2023-08-24T06:14:08;27.60;91.70
28460;DHT22;32528;45.712;9.192;2023-08-24T06:16:09;27.60;91.40
28460;DHT22;32528;45.712;9.192;2023-08-24T06:18:09;27.70;91.20
28460;DHT22;32528;45.712;9.192;2023-08-24T06:20:12;27.80;91.10
28460;DHT22;32528;45.712;9.192;2023-08-24T06:22:13;27.80;91.10
28460;DHT22;32528;45.712;9.192;2023-08-24T06:24:13;27.90;90.90
28460;DHT22;32528;45.712;9.192;2023-08-24T06:26:14;27.90;91.10
28460;DHT22;32528;45.712;9.192;2023-08-24T06:28:15;28.00;91.00
28460;DHT22;32528;45.712;9.192;2023-08-24T06:30:16;28.10;90.80
28460;DHT22;32528;45.712;9.192;2023-08-24T06:32:17;28.20;90.70
28460;DHT22;32528;45.712;9.192;2023-08-24T06:34:17;28.30;90.70
28460;DHT22;32528;45.712;9.192;2023-08-24T06:36:18;28.40;90.70
28460;DHT22;32528;45.712;9.192;2023-08-24T06:38:20;28.50;90.40
28460;DHT22;32528;45.712;9.192;2023-08-24T06:40:21;28.60;90.20
28460;DHT22;32528;45.712;9.192;2023-08-24T06:42:22;28.60;90.50
28460;DHT22;32528;45.712;9.192;2023-08-24T06:44:22;28.70;90.00
28460;DHT22;32528;45.712;9.192;2023-08-24T06:46:23;28.70;89.70
28460;DHT22;32528;45.712;9.192;2023-08-24T06:48:24;28.70;89.20
28460;DHT22;32528;45.712;9.192;2023-08-24T06:50:25;28.80;89.00
28460;DHT22;32528;45.712;9.192;2023-08-24T06:52:26;28.80;89.10
28460;DHT22;32528;45.712;9.192;2023-08-24T06:54:27;28.90;89.30
28460;DHT22;32528;45.712;9.192;2023-08-24T06:56:28;29.00;89.10
28460;DHT22;32528;45.712;9.192;2023-08-24T06:58:28;29.10;89.10
28460;DHT22;32528;45.712;9.192;2023-08-24T07:00:29;29.20;89.00
28460;DHT22;32528;45.712;9.192;2023-08-24T07:02:30;29.30;88.80
28460;DHT22;32528;45.712;9.192;2023-08-24T07:04:31;29.40;88.30
28460;DHT22;32528;45.712;9.192;2023-08-24T07:06:33;29.40;87.70
28460;DHT22;32528;45.712;9.192;2023-08-24T07:08:35;29.40;86.70
28460;DHT22;32528;45.712;9.192;2023-08-24T07:10:36;29.50;86.50
28460;DHT22;32528;45.712;9.192;2023-08-24T07:12:36;29.50;86.20
28460;DHT22;32528;45.712;9.192;2023-08-24T07:14:38;29.60;85.80
28460;DHT22;32528;45.712;9.192;2023-08-24T07:16:39;29.70;85.20
28460;DHT22;32528;45.712;9.192;2023-08-24T07:18:40;29.70;84.70
28460;DHT22;32528;45.712;9.192;2023-08-24T07:20:40;29.70;84.40
28460;DHT22;32528;45.712;9.192;2023-08-24T07:22:41;29.80;84.60
28460;DHT22;32528;45.712;9.192;2023-08-24T07:24:42;29.90;84.50
28460;DHT22;32528;45.712;9.192;2023-08-24T07:26:42;29.90;83.80
28460;DHT22;32528;45.712;9.192;2023-08-24T07:28:43;29.90;83.90
28460;DHT22;32528;45.712;9.192;2023-08-24T07:30:44;30.00;84.20
28460;DHT22;32528;45.712;9.192;2023-08-24T07:32:45;30.10;83.60
28460;DHT22;32528;45.712;9.192;2023-08-24T07:34:46;30.10;83.70
28460;DHT22;32528;45.712;9.192;2023-08-24T07:36:46;30.20;83.60
28460;DHT22;32528;45.712;9.192;2023-08-24T07:38:48;30.30;83.90
28460;DHT22;32528;45.712;9.192;2023-08-24T07:40:49;30.30;83.40
28460;DHT22;32528;45.712;9.192;2023-08-24T07:42:51;30.40;83.20
28460;DHT22;32528;45.712;9.192;2023-08-24T07:44:55;30.50;82.90
28460;DHT22;32528;45.712;9.192;2023-08-24T07:46:56;30.50;82.70
28460;DHT22;32528;45.712;9.192;2023-08-24T07:48:56;30.60;82.80
28460;DHT22;32528;45.712;9.192;2023-08-24T07:50:57;30.70;82.60
28460;DHT22;32528;45.712;9.192;2023-08-24T07:52:58;30.80;82.50
28460;DHT22;32528;45.712;9.192;2023-08-24T07:54:59;30.80;82.30
28460;DHT22;32528;45.712;9.192;2023-08-24T07:57:01;30.90;81.80
28460;DHT22;32528;45.712;9.192;2023-08-24T07:59:01;31.00;81.40
28460;DHT22;32528;45.712;9.192;2023-08-24T08:01:02;31.00;80.40
28460;DHT22;32528;45.712;9.192;2023-08-24T08:03:03;31.00;79.70
28460;DHT22;32528;45.712;9.192;2023-08-24T08:05:04;31.10;79.10
28460;DHT22;32528;45.712;9.192;2023-08-24T08:07:07;31.20;78.40
28460;DHT22;32528;45.712;9.192;2023-08-24T08:09:08;31.20;77.40
28460;DHT22;32528;45.712;9.192;2023-08-24T08:11:09;31.30;76.40
28460;DHT22;32528;45.712;9.192;2023-08-24T08:13:09;31.30;76.00
28460;DHT22;32528;45.712;9.192;2023-08-24T08:15:13;31.30;75.70
28460;DHT22;32528;45.712;9.192;2023-08-24T08:17:14;31.40;75.80
28460;DHT22;32528;45.712;9.192;2023-08-24T08:19:15;31.40;75.30
28460;DHT22;32528;45.712;9.192;2023-08-24T08:21:17;31.50;75.60
28460;DHT22;32528;45.712;9.192;2023-08-24T08:23:21;31.50;74.00
28460;DHT22;32528;45.712;9.192;2023-08-24T08:25:21;31.60;74.60
28460;DHT22;32528;45.712;9.192;2023-08-24T08:27:23;31.70;74.10
28460;DHT22;32528;45.712;9.192;2023-08-24T08:29:23;31.70;73.70
28460;DHT22;32528;45.712;9.192;2023-08-24T08:31:24;31.80;73.50
28460;DHT22;32528;45.712;9.192;2023-08-24T08:33:25;31.80;73.50
28460;DHT22;32528;45.712;9.192;2023-08-24T08:35:26;31.80;72.90
28460;DHT22;32528;45.712;9.192;2023-08-24T08:37:27;31.90;71.90
28460;DHT22;32528;45.712;9.192;2023-08-24T08:39:28;31.90;70.80
28460;DHT22;32528;45.712;9.192;2023-08-24T08:41:33;32.10;70.50
28460;DHT22;32528;45.712;9.192;2023-08-24T08:43:38;32.20;69.30
28460;DHT22;32528;45.712;9.192;2023-08-24T08:45:38;32.20;68.80
28460;DHT22;32528;45.712;9.192;2023-08-24T08:47:39;32.30;67.80
28460;DHT22;32528;45.712;9.192;2023-08-24T08:49:45;32.40;68.60
28460;DHT22;32528;45.712;9.192;2023-08-24T08:51:48;32.40;67.90
28460;DHT22;32528;45.712;9.192;2023-08-24T08:53:49;32.50;67.10
28460;DHT22;32528;45.712;9.192;2023-08-24T08:55:52;32.40;66.40
28460;DHT22;32528;45.712;9.192;2023-08-24T08:57:56;32.50;65.10
28460;DHT22;32528;45.712;9.192;2023-08-24T08:59:58;32.50;64.90
28460;DHT22;32528;45.712;9.192;2023-08-24T09:02:03;32.50;66.20
28460;DHT22;32528;45.712;9.192;2023-08-24T09:04:05;32.50;64.80
28460;DHT22;32528;45.712;9.192;2023-08-24T09:06:07;32.50;64.30
28460;DHT22;32528;45.712;9.192;2023-08-24T09:08:07;32.50;65.50
28460;DHT22;32528;45.712;9.192;2023-08-24T09:10:09;32.60;65.80
28460;DHT22;32528;45.712;9.192;2023-08-24T09:12:10;32.70;65.70
28460;DHT22;32528;45.712;9.192;2023-08-24T09:14:11;32.80;65.10
28460;DHT22;32528;45.712;9.192;2023-08-24T09:16:11;32.80;65.30
28460;DHT22;32528;45.712;9.192;2023-08-24T09:18:16;32.80;64.90
28460;DHT22;32528;45.712;9.192;2023-08-24T09:20:17;32.80;64.70
28460;DHT22;32528;45.712;9.192;2023-08-24T09:22:18;32.80;64.90
28460;DHT22;32528;45.712;9.192;2023-08-24T09:24:29;32.90;64.50
28460;DHT22;32528;45.712;9.192;2023-08-24T09:26:35;33.00;64.00
28460;DHT22;32528;45.712;9.192;2023-08-24T09:28:37;33.00;64.80
28460;DHT22;32528;45.712;9.192;2023-08-24T09:30:40;33.10;65.50
28460;DHT22;32528;45.712;9.192;2023-08-24T09:32:42;33.20;65.00
28460;DHT22;32528;45.712;9.192;2023-08-24T09:34:42;33.20;65.10
28460;DHT22;32528;45.712;9.192;2023-08-24T09:36:43;33.20;64.50
28460;DHT22;32528;45.712;9.192;2023-08-24T09:38:47;33.20;64.70
28460;DHT22;32528;45.712;9.192;2023-08-24T09:40:55;33.20;64.90
28460;DHT22;32528;45.712;9.192;2023-08-24T09:42:56;33.20;64.70
28460;DHT22;32528;45.712;9.192;2023-08-24T09:45:03;33.30;64.50
28460;DHT22;32528;45.712;9.192;2023-08-24T09:47:11;33.40;63.60
28460;DHT22;32528;45.712;9.192;2023-08-24T09:49:13;33.40;63.30
28460;DHT22;32528;45.712;9.192;2023-08-24T09:51:13;33.40;63.60
28460;DHT22;32528;45.712;9.192;2023-08-24T09:53:20;33.50;64.60
28460;DHT22;32528;45.712;9.192;2023-08-24T09:55:20;33.60;65.30
28460;DHT22;32528;45.712;9.192;2023-08-24T09:57:23;33.60;65.10
28460;DHT22;32528;45.712;9.192;2023-08-24T09:59:26;33.70;65.30
28460;DHT22;32528;45.712;9.192;2023-08-24T10:01:28;33.70;64.80
28460;DHT22;32528;45.712;9.192;2023-08-24T10:03:32;33.70;63.70
28460;DHT22;32528;45.712;9.192;2023-08-24T10:05:33;33.70;64.10
28460;DHT22;32528;45.712;9.192;2023-08-24T10:07:35;33.70;64.10
28460;DHT22;32528;45.712;9.192;2023-08-24T10:09:47;33.70;64.70
28460;DHT22;32528;45.712;9.192;2023-08-24T10:11:54;33.90;65.30
28460;DHT22;32528;45.712;9.192;2023-08-24T10:14:01;33.90;64.20
28460;DHT22;32528;45.712;9.192;2023-08-24T10:16:07;33.90;64.50
28460;DHT22;32528;45.712;9.192;2023-08-24T10:18:08;34.00;64.10
28460;DHT22;32528;45.712;9.192;2023-08-24T10:20:10;34.00;64.10
28460;DHT22;32528;45.712;9.192;2023-08-24T10:22:12;34.10;63.80
28460;DHT22;32528;45.712;9.192;2023-08-24T10:24:13;34.20;63.70
28460;DHT22;32528;45.712;9.192;2023-08-24T10:26:16;34.20;63.30
28460;DHT22;32528;45.712;9.192;2023-08-24T10:28:18;34.20;62.60
28460;DHT22;32528;45.712;9.192;2023-08-24T10:30:21;34.20;62.10
28460;DHT22;32528;45.712;9.192;2023-08-24T10:32:22;34.30;62.00
28460;DHT22;32528;45.712;9.192;2023-08-24T10:34:27;34.30;62.40
28460;DHT22;32528;45.712;9.192;2023-08-24T10:36:27;34.20;61.50
28460;DHT22;32528;45.712;9.192;2023-08-24T10:38:30;34.10;61.30
28460;DHT22;32528;45.712;9.192;2023-08-24T10:40:35;34.10;61.00
28460;DHT22;32528;45.712;9.192;2023-08-24T10:42:46;34.20;60.70
28460;DHT22;32528;45.712;9.192;2023-08-24T10:44:47;34.20;59.70
28460;DHT22;32528;45.712;9.192;2023-08-24T10:49:19;34.20;59.90
28460;DHT22;32528;45.712;9.192;2023-08-24T10:51:23;34.20;60.40
28460;DHT22;32528;45.712;9.192;2023-08-24T10:53:43;34.30;62.00
28460;DHT22;32528;45.712;9.192;2023-08-24T10:55:44;34.40;61.80
28460;DHT22;32528;45.712;9.192;2023-08-24T10:57:45;34.50;61.10
28460;DHT22;32528;45.712;9.192;2023-08-24T11:00:13;34.60;61.20
28460;DHT22;32528;45.712;9.192;2023-08-24T11:02:19;34.60;61.10
28460;DHT22;32528;45.712;9.192;2023-08-24T11:04:20;34.60;61.80
28460;DHT22;32528;45.712;9.192;2023-08-24T11:06:21;34.70;60.60
28460;DHT22;32528;45.712;9.192;2023-08-24T11:08:46;34.80;60.40
28460;DHT22;32528;45.712;9.192;2023-08-24T11:10:47;34.80;59.80
28460;DHT22;32528;45.712;9.192;2023-08-24T11:15:09;34.90;59.20
28460;DHT22;32528;45.712;9.192;2023-08-24T11:17:20;34.80;60.00
28460;DHT22;32528;45.712;9.192;2023-08-24T11:19:22;34.90;60.70
28460;DHT22;32528;45.712;9.192;2023-08-24T11:21:23;34.80;60.00
28460;DHT22;32528;45.712;9.192;2023-08-24T11:23:24;34.90;60.40
28460;DHT22;32528;45.712;9.192;2023-08-24T11:25:25;35.00;60.60
28460;DHT22;32528;45.712;9.192;2023-08-24T11:27:27;35.10;60.30
28460;DHT22;32528;45.712;9.192;2023-08-24T11:29:28;35.20;60.20
28460;DHT22;32528;45.712;9.192;2023-08-24T11:31:29;35.20;59.40
28460;DHT22;32528;45.712;9.192;2023-08-24T11:33:34;35.20;59.70
28460;DHT22;32528;45.712;9.192;2023-08-24T11:35:35;35.20;59.70
28460;DHT22;32528;45.712;9.192;2023-08-24T11:37:37;35.20;59.30
28460;DHT22;32528;45.712;9.192;2023-08-24T11:39:38;35.30;59.10
28460;DHT22;32528;45.712;9.192;2023-08-24T11:41:39;35.30;59.50
28460;DHT22;32528;45.712;9.192;2023-08-24T11:43:40;35.40;59.50
28460;DHT22;32528;45.712;9.192;2023-08-24T11:45:40;35.30;58.90
28460;DHT22;32528;45.712;9.192;2023-08-24T11:47:42;35.40;59.10
28460;DHT22;32528;45.712;9.192;2023-08-24T11:49:43;35.40;59.10
28460;DHT22;32528;45.712;9.192;2023-08-24T11:51:44;35.30;58.60
28460;DHT22;32528;45.712;9.192;2023-08-24T11:53:46;35.30;59.00
28460;DHT22;32528;45.712;9.192;2023-08-24T11:55:47;35.30;59.00
28460;DHT22;32528;45.712;9.192;2023-08-24T11:57:48;35.40;58.50
28460;DHT22;32528;45.712;9.192;2023-08-24T11:59:49;35.50;59.40
28460;DHT22;32528;45.712;9.192;2023-08-24T12:01:49;35.50;59.40
28460;DHT22;32528;45.712;9.192;2023-08-24T12:03:51;35.60;59.90
28460;DHT22;32528;45.712;9.192;2023-08-24T12:05:52;35.60;60.20
28460;DHT22;32528;45.712;9.192;2023-08-24T12:07:54;35.80;60.50
28460;DHT22;32528;45.712;9.192;2023-08-24T12:09:55;35.80;59.70
28460;DHT22;32528;45.712;9.192;2023-08-24T12:11:56;35.90;58.40
28460;DHT22;32528;45.712;9.192;2023-08-24T12:13:58;35.80;57.70
28460;DHT22;32528;45.712;9.192;2023-08-24T12:15:58;35.80;58.00
28460;DHT22;32528;45.712;9.192;2023-08-24T12:18:09;35.90;59.10
28460;DHT22;32528;45.712;9.192;2023-08-24T12:20:20;36.00;59.10
28460;DHT22;32528;45.712;9.192;2023-08-24T12:22:24;36.10;59.60
28460;DHT22;32528;45.712;9.192;2023-08-24T12:24:25;36.20;59.40
28460;DHT22;32528;45.712;9.192;2023-08-24T12:26:28;36.30;59.10
28460;DHT22;32528;45.712;9.192;2023-08-24T12:28:29;36.40;58.30
28460;DHT22;32528;45.712;9.192;2023-08-24T12:30:30;36.40;58.30
28460;DHT22;32528;45.712;9.192;2023-08-24T12:32:42;36.40;57.60
28460;DHT22;32528;45.712;9.192;2023-08-24T12:34:44;36.50;58.20
28460;DHT22;32528;45.712;9.192;2023-08-24T12:36:45;36.60;58.70
28460;DHT22;32528;45.712;9.192;2023-08-24T12:38:46;36.60;58.30
28460;DHT22;32528;45.712;9.192;2023-08-24T12:40:48;36.60;58.10
28460;DHT22;32528;45.712;9.192;2023-08-24T12:42:49;36.70;57.90
28460;DHT22;32528;45.712;9.192;2023-08-24T12:44:50;36.80;59.00
28460;DHT22;32528;45.712;9.192;2023-08-24T12:46:50;36.80;58.00
28460;DHT22;32528;45.712;9.192;2023-08-24T12:48:51;36.80;57.30
28460;DHT22;32528;45.712;9.192;2023-08-24T12:50:52;36.80;57.30
28460;DHT22;32528;45.712;9.192;2023-08-24T12:52:53;36.70;57.80
28460;DHT22;32528;45.712;9.192;2023-08-24T12:54:56;36.60;57.80
28460;DHT22;32528;45.712;9.192;2023-08-24T12:56:57;36.70;57.70
28460;DHT22;32528;45.712;9.192;2023-08-24T12:58:58;36.80;57.90